createdAt,value
2019-02-18T00:04:54.030Z,49.85
2019-02-18T00:09:53.740Z,49.69
2019-02-18T00:14:53.930Z,49.21
2019-02-18T00:19:54.010Z,49.25
2019-02-18T00:24:54.033Z,49.90
2019-02-18T00:29:53.772Z,49.15
2019-02-18T00:34:53.896Z,49.23
2019-02-18T00:39:54.045Z,49.81
2019-02-18T00:44:54.070Z,49.45
2019-02-18T00:49:53.716Z,49.24
2019-02-18T00:54:54.004Z,49.12
2019-02-18T00:59:54.298Z,49.22
2019-02-18T01:04:54.226Z,49.44
2019-02-18T01:09:53.950Z,49.24
2019-02-18T01:14:54.077Z,49.10
2019-02-18T01:19:53.841Z,49.40
2019-02-18T01:24:53.967Z,49.12
2019-02-18T01:29:53.816Z,49.32
2019-02-18T01:34:53.758Z,49.16
2019-02-18T01:39:54.057Z,49.82
2019-02-18T01:44:53.802Z,49.19
2019-02-18T01:49:53.920Z,49.83
2019-02-18T01:54:53.896Z,49.51
2019-02-18T01:59:53.897Z,49.84
2019-02-18T02:04:53.853Z,49.20
2019-02-18T02:09:53.858Z,49.11
2019-02-18T02:14:54.184Z,49.84
2019-02-18T02:19:53.821Z,49.73
2019-02-18T02:24:53.886Z,49.15
2019-02-18T02:29:53.886Z,49.68
2019-02-18T02:34:53.831Z,49.54
2019-02-18T02:39:54.062Z,49.70
2019-02-18T02:44:53.823Z,49.79
2019-02-18T02:49:53.829Z,49.13
2019-02-18T02:54:53.878Z,49.15
2019-02-18T02:59:54.223Z,49.21
2019-02-18T03:04:53.962Z,49.33
2019-02-18T03:09:53.887Z,49.04
2019-02-18T03:14:53.939Z,49.14
2019-02-18T03:19:53.889Z,49.69
2019-02-18T03:24:53.918Z,49.18
2019-02-18T03:29:53.927Z,49.50
2019-02-18T03:34:53.851Z,49.24
2019-02-18T03:39:54.122Z,49.73
2019-02-18T03:44:54.121Z,49.07
2019-02-18T03:49:54.068Z,49.23
2019-02-18T03:54:53.993Z,49.16
2019-02-18T03:59:53.952Z,49.42
2019-02-18T04:04:54.005Z,49.13
2019-02-18T04:09:53.857Z,49.54
2019-02-18T04:14:54.031Z,49.21
2019-02-18T04:19:54.166Z,49.65
2019-02-18T04:24:53.995Z,49.57
2019-02-18T04:29:54.071Z,49.02
2019-02-18T04:34:53.891Z,49.32
2019-02-18T04:39:54.102Z,49.29
2019-02-18T04:44:53.944Z,49.13
2019-02-18T04:49:53.893Z,49.03
2019-02-18T04:54:54.199Z,49.04
2019-02-18T04:59:53.942Z,49.42
2019-02-18T05:04:54.174Z,49.23
2019-02-18T05:09:54.020Z,48.89
2019-02-18T05:14:53.952Z,49.54
2019-02-18T05:19:53.968Z,49.23
2019-02-18T05:24:54.025Z,48.92
2019-02-18T05:29:53.966Z,49.62
2019-02-18T05:34:54.198Z,49.23
2019-02-18T05:39:55.445Z,48.52
2019-02-18T05:44:54.087Z,48.89
2019-02-18T05:49:54.006Z,48.92
2019-02-18T05:54:54.013Z,48.57
2019-02-18T05:59:54.087Z,44.46
2019-02-18T06:04:53.988Z,45.72
2019-02-18T06:09:54.054Z,45.14
2019-02-18T06:14:54.088Z,46.63
2019-02-18T06:19:54.115Z,45.87
2019-02-18T06:24:54.305Z,46.40
2019-02-18T06:29:54.064Z,46.93
2019-02-18T06:34:54.028Z,46.56
2019-02-18T06:39:54.108Z,46.75
2019-02-18T06:44:54.049Z,47.32
2019-02-18T06:49:54.615Z,47.29
2019-02-18T06:54:54.022Z,47.34
2019-02-18T06:59:54.068Z,47.34
2019-02-18T07:04:54.002Z,47.16
2019-02-18T07:09:54.043Z,47.48
2019-02-18T07:14:54.156Z,46.99
2019-02-18T07:19:54.116Z,47.26
2019-02-18T07:24:54.190Z,47.58
2019-02-18T07:29:54.168Z,47.45
2019-02-18T07:34:54.119Z,47.55
2019-02-18T07:40:01.178Z,47.52
2019-02-18T07:44:54.249Z,47.24
2019-02-18T07:49:54.120Z,47.23
2019-02-18T07:54:54.108Z,47.84
2019-02-18T07:59:54.183Z,47.80
2019-02-18T08:04:54.435Z,47.85
2019-02-18T08:09:54.186Z,48.03
2019-02-18T08:14:54.084Z,47.44
2019-02-18T08:19:54.140Z,47.47
2019-02-18T08:24:54.168Z,48.01
2019-02-18T08:29:54.190Z,47.73
2019-02-18T08:34:54.255Z,47.66
2019-02-18T08:39:54.242Z,47.30
2019-02-18T08:44:54.202Z,47.47
2019-02-18T08:49:54.240Z,48.12
2019-02-18T08:54:56.659Z,47.70
2019-02-18T08:59:54.223Z,47.43
2019-02-18T09:04:54.237Z,48.05
2019-02-18T09:09:54.142Z,48.03
2019-02-18T09:14:54.195Z,48.13
2019-02-18T09:19:54.348Z,47.61
2019-02-18T09:24:54.319Z,47.58
2019-02-18T09:29:54.314Z,48.09
2019-02-18T09:35:01.569Z,47.45
2019-02-18T09:39:54.152Z,47.68
2019-02-18T09:44:54.233Z,48.05
2019-02-18T09:49:54.306Z,47.22
2019-02-18T09:54:54.173Z,47.39
2019-02-18T09:59:54.306Z,47.66
2019-02-18T10:04:54.453Z,48.07
2019-02-18T10:09:54.376Z,47.49
2019-02-18T10:14:54.251Z,47.32
2019-02-18T10:19:54.473Z,47.95
2019-02-18T10:24:54.515Z,47.99
2019-02-18T10:29:54.277Z,47.47
2019-02-18T10:34:54.243Z,47.79
2019-02-18T10:39:54.482Z,47.99
2019-02-18T10:44:54.534Z,47.98
2019-02-18T10:49:54.477Z,47.35
2019-02-18T10:54:54.456Z,47.31
2019-02-18T10:59:54.438Z,47.36
2019-02-18T11:04:54.272Z,47.74
2019-02-18T11:09:54.487Z,47.37
2019-02-18T11:14:54.442Z,47.25
2019-02-18T11:19:54.456Z,47.33
2019-02-18T11:24:54.245Z,47.88
2019-02-18T11:29:54.327Z,47.83
2019-02-18T11:34:54.263Z,47.84
2019-02-18T11:39:54.316Z,47.39
2019-02-18T11:44:54.369Z,47.51
2019-02-18T11:49:55.261Z,47.52
2019-02-18T11:54:54.303Z,47.39
2019-02-18T11:59:54.359Z,47.70
2019-02-18T12:04:54.384Z,47.30
2019-02-18T12:09:54.507Z,47.59
2019-02-18T12:14:54.345Z,47.98
2019-02-18T12:19:54.376Z,47.49
2019-02-18T12:24:54.415Z,47.46
2019-02-18T12:29:54.448Z,47.83
2019-02-18T12:34:54.438Z,47.46
2019-02-18T12:39:54.428Z,48.04
2019-02-18T12:44:54.355Z,48.07
2019-02-18T12:49:54.433Z,48.14
2019-02-18T12:54:54.462Z,47.81
2019-02-18T12:59:54.571Z,48.01
2019-02-18T13:04:54.431Z,47.69
2019-02-18T13:09:54.335Z,47.74
2019-02-18T13:14:54.545Z,47.67
2019-02-18T13:19:54.332Z,47.45
2019-02-18T13:24:54.342Z,47.49
2019-02-18T13:29:54.367Z,47.58
2019-02-18T13:34:54.414Z,47.45
2019-02-18T13:39:54.531Z,47.68
2019-02-18T13:44:54.481Z,47.19
2019-02-18T13:49:54.398Z,48.16
2019-02-18T13:54:54.438Z,47.42
2019-02-18T13:59:54.357Z,47.57
2019-02-18T14:04:54.596Z,47.95
2019-02-18T14:09:54.760Z,48.20
2019-02-18T14:14:54.494Z,47.61
2019-02-18T14:19:54.631Z,47.57
2019-02-18T14:24:54.460Z,47.50
2019-02-18T14:29:54.588Z,48.08
2019-02-18T14:34:54.491Z,48.09
2019-02-18T14:39:54.466Z,48.25
2019-02-18T14:44:54.487Z,48.17
2019-02-18T14:49:54.506Z,48.07
2019-02-18T14:54:54.430Z,48.01
2019-02-18T14:59:54.579Z,48.34
2019-02-18T15:04:54.615Z,48.04
2019-02-18T15:09:54.458Z,48.00
2019-02-18T15:14:54.478Z,48.13
2019-02-18T15:19:54.549Z,48.23
2019-02-18T15:24:54.552Z,47.89
2019-02-18T15:29:54.572Z,47.55
2019-02-18T15:34:54.521Z,48.12
2019-02-18T15:39:54.656Z,48.01
2019-02-18T15:44:54.889Z,47.96
2019-02-18T15:49:54.527Z,48.21
2019-02-18T15:54:54.577Z,48.25
2019-02-18T15:59:54.497Z,47.82
2019-02-18T16:04:54.532Z,48.27
2019-02-18T16:09:54.663Z,48.28
2019-02-18T16:14:54.598Z,47.68
2019-02-18T16:19:54.568Z,47.75
2019-02-18T16:24:54.581Z,48.25
2019-02-18T16:29:54.630Z,48.12
2019-02-18T16:34:56.346Z,47.87
2019-02-18T16:39:54.768Z,48.41
2019-02-18T16:44:54.816Z,48.01
2019-02-18T16:49:54.555Z,47.88
2019-02-18T16:54:54.601Z,47.99
2019-02-18T16:59:54.635Z,47.83
2019-02-18T17:04:54.556Z,48.53
2019-02-18T17:09:54.696Z,48.16
2019-02-18T17:14:54.619Z,47.71
2019-02-18T17:19:54.648Z,48.50
2019-02-18T17:24:54.684Z,48.35
2019-02-18T17:29:54.819Z,47.77
2019-02-18T17:34:54.641Z,47.80
2019-02-18T17:39:54.902Z,47.95
2019-02-18T17:44:54.619Z,47.98
2019-02-18T17:49:54.867Z,48.04
2019-02-18T17:54:54.799Z,48.44
2019-02-18T17:59:54.712Z,48.46
2019-02-18T18:04:55.064Z,47.99
2019-02-18T18:09:54.891Z,48.28
2019-02-18T18:14:54.617Z,48.18
2019-02-18T18:19:54.866Z,48.52
2019-02-18T18:24:54.975Z,47.95
2019-02-18T18:29:54.743Z,48.61
2019-02-18T18:34:54.672Z,48.05
2019-02-18T18:39:54.836Z,48.61
2019-02-18T18:44:54.688Z,48.65
2019-02-18T18:49:54.768Z,48.06
2019-02-18T18:54:55.010Z,48.29
2019-02-18T18:59:54.752Z,47.96
2019-02-18T19:04:54.701Z,47.98
2019-02-18T19:09:54.820Z,48.57
2019-02-18T19:14:55.047Z,48.21
2019-02-18T19:19:57.812Z,48.27
2019-02-18T19:24:54.691Z,48.21
2019-02-18T19:29:55.290Z,48.54
2019-02-18T19:34:54.673Z,48.67
2019-02-18T19:39:55.011Z,48.69
2019-02-18T19:44:54.784Z,48.33
2019-02-18T19:49:55.629Z,48.77
2019-02-18T19:54:54.737Z,48.69
2019-02-18T19:59:54.996Z,48.50
2019-02-18T20:04:54.796Z,48.33
2019-02-18T20:09:54.804Z,48.41
2019-02-18T20:14:55.272Z,48.24
2019-02-18T20:19:55.192Z,48.31
2019-02-18T20:24:55.659Z,48.36
2019-02-18T20:29:54.742Z,48.53
2019-02-18T20:34:54.816Z,48.65
2019-02-18T20:39:54.829Z,48.47
2019-02-18T20:44:55.105Z,48.62
2019-02-18T20:49:54.815Z,48.40
2019-02-18T20:54:55.032Z,48.46
2019-02-18T20:59:55.002Z,48.85
2019-02-18T21:04:55.222Z,48.69
2019-02-18T21:09:54.949Z,48.43
2019-02-18T21:14:54.800Z,48.21
2019-02-18T21:19:54.806Z,48.79
2019-02-18T21:24:54.921Z,48.58
2019-02-18T21:29:54.884Z,48.44
2019-02-18T21:34:54.793Z,48.55
2019-02-18T21:39:55.031Z,48.57
2019-02-18T21:44:54.897Z,48.58
2019-02-18T21:49:54.818Z,48.93
2019-02-18T21:54:54.962Z,48.96
2019-02-18T21:59:54.865Z,48.38
2019-02-18T22:04:55.026Z,48.49
2019-02-18T22:09:54.844Z,48.96
2019-02-18T22:14:54.832Z,48.62
2019-02-18T22:19:55.065Z,48.38
2019-02-18T22:24:54.844Z,48.34
2019-02-18T22:29:55.084Z,48.42
2019-02-18T22:34:55.006Z,48.40
2019-02-18T22:39:54.967Z,49.03
2019-02-18T22:44:54.879Z,48.34
2019-02-18T22:49:54.830Z,48.91
2019-02-18T22:54:54.848Z,49.00
2019-02-18T22:59:54.855Z,48.95
2019-02-18T23:04:54.933Z,49.04
2019-02-18T23:09:54.972Z,48.38
2019-02-18T23:14:54.893Z,48.51
2019-02-18T23:19:54.931Z,48.86
2019-02-18T23:24:54.979Z,49.06
2019-02-18T23:29:55.005Z,49.06
2019-02-18T23:34:55.053Z,48.95
2019-02-18T23:39:55.056Z,49.08
2019-02-18T23:44:59.229Z,48.47
2019-02-18T23:49:54.934Z,48.45
2019-02-18T23:54:54.994Z,48.80
2019-02-18T23:59:55.189Z,49.06
